sensor_id;sensor_type;location;lat;lon;timestamp;temperature;humidity
13086;DHT22;6609;49.882;8.664;2022-10-17T00:06:47;14.70;93.70
13086;DHT22;6609;49.882;8.664;2022-10-17T00:09:15;14.70;93.70
13086;DHT22;6609;49.882;8.664;2022-10-17T00:11:41;14.70;93.70
13086;DHT22;6609;49.882;8.664;2022-10-17T00:16:35;14.70;93.70
13086;DHT22;6609;49.882;8.664;2022-10-17T00:19:03;14.60;93.70
13086;DHT22;6609;49.882;8.664;2022-10-17T00:23:58;14.60;93.70
13086;DHT22;6609;49.882;8.664;2022-10-17T00:26:27;14.60;93.70
13086;DHT22;6609;49.882;8.664;2022-10-17T00:31:22;14.60;93.60
13086;DHT22;6609;49.882;8.664;2022-10-17T00:33:49;14.50;93.50
13086;DHT22;6609;49.882;8.664;2022-10-17T00:36:18;14.50;93.60
13086;DHT22;6609;49.882;8.664;2022-10-17T00:38:47;14.50;93.50
13086;DHT22;6609;49.882;8.664;2022-10-17T00:41:16;14.40;93.50
13086;DHT22;6609;49.882;8.664;2022-10-17T00:44:00;14.50;93.50
13086;DHT22;6609;49.882;8.664;2022-10-17T00:46:29;14.40;93.50
13086;DHT22;6609;49.882;8.664;2022-10-17T00:48:57;14.40;93.60
13086;DHT22;6609;49.882;8.664;2022-10-17T00:51:30;14.40;93.60
13086;DHT22;6609;49.882;8.664;2022-10-17T00:56:26;14.40;93.70
13086;DHT22;6609;49.882;8.664;2022-10-17T01:01:22;14.40;93.60
13086;DHT22;6609;49.882;8.664;2022-10-17T01:03:49;14.40;93.60
13086;DHT22;6609;49.882;8.664;2022-10-17T01:06:16;14.30;93.50
13086;DHT22;6609;49.882;8.664;2022-10-17T01:08:43;14.30;93.60
13086;DHT22;6609;49.882;8.664;2022-10-17T01:11:20;14.30;93.50
13086;DHT22;6609;49.882;8.664;2022-10-17T01:13:52;14.30;93.50
13086;DHT22;6609;49.882;8.664;2022-10-17T01:16:31;14.20;93.60
13086;DHT22;6609;49.882;8.664;2022-10-17T01:19:14;14.20;93.50
13086;DHT22;6609;49.882;8.664;2022-10-17T01:21:53;14.10;93.50
13086;DHT22;6609;49.882;8.664;2022-10-17T01:24:47;14.20;93.50
13086;DHT22;6609;49.882;8.664;2022-10-17T01:27:25;14.20;93.60
13086;DHT22;6609;49.882;8.664;2022-10-17T01:30:02;14.10;93.50
13086;DHT22;6609;49.882;8.664;2022-10-17T01:32:39;14.10;93.50
13086;DHT22;6609;49.882;8.664;2022-10-17T01:35:12;14.10;93.50
13086;DHT22;6609;49.882;8.664;2022-10-17T01:40:14;14.10;93.50
13086;DHT22;6609;49.882;8.664;2022-10-17T01:42:51;14.10;93.50
13086;DHT22;6609;49.882;8.664;2022-10-17T01:45:22;14.00;93.40
13086;DHT22;6609;49.882;8.664;2022-10-17T01:50:24;14.00;93.40
13086;DHT22;6609;49.882;8.664;2022-10-17T01:52:56;13.90;93.30
13086;DHT22;6609;49.882;8.664;2022-10-17T01:55:27;14.00;93.40
13086;DHT22;6609;49.882;8.664;2022-10-17T01:57:59;13.90;93.30
13086;DHT22;6609;49.882;8.664;2022-10-17T02:00:29;13.90;93.40
13086;DHT22;6609;49.882;8.664;2022-10-17T02:03:00;13.90;93.30
13086;DHT22;6609;49.882;8.664;2022-10-17T02:05:31;13.90;93.40
13086;DHT22;6609;49.882;8.664;2022-10-17T02:10:31;13.90;93.30
13086;DHT22;6609;49.882;8.664;2022-10-17T02:13:06;13.80;93.30
13086;DHT22;6609;49.882;8.664;2022-10-17T02:15:51;13.80;93.20
13086;DHT22;6609;49.882;8.664;2022-10-17T02:18:31;13.80;93.20
13086;DHT22;6609;49.882;8.664;2022-10-17T02:21:05;13.80;93.20
13086;DHT22;6609;49.882;8.664;2022-10-17T02:23:37;13.80;93.10
13086;DHT22;6609;49.882;8.664;2022-10-17T02:26:11;13.70;93.10
13086;DHT22;6609;49.882;8.664;2022-10-17T02:28:43;13.70;93.20
13086;DHT22;6609;49.882;8.664;2022-10-17T02:31:14;13.60;93.10
13086;DHT22;6609;49.882;8.664;2022-10-17T02:33:47;13.70;93.20
13086;DHT22;6609;49.882;8.664;2022-10-17T02:36:19;13.70;93.20
13086;DHT22;6609;49.882;8.664;2022-10-17T02:38:48;13.70;93.20
13086;DHT22;6609;49.882;8.664;2022-10-17T02:41:17;13.70;93.30
13086;DHT22;6609;49.882;8.664;2022-10-17T02:43:45;13.60;93.30
13086;DHT22;6609;49.882;8.664;2022-10-17T02:46:13;13.70;93.40
13086;DHT22;6609;49.882;8.664;2022-10-17T02:48:49;13.60;93.20
13086;DHT22;6609;49.882;8.664;2022-10-17T02:51:23;13.60;93.40
13086;DHT22;6609;49.882;8.664;2022-10-17T02:53:58;13.60;93.40
13086;DHT22;6609;49.882;8.664;2022-10-17T02:56:28;13.60;93.40
13086;DHT22;6609;49.882;8.664;2022-10-17T03:01:25;13.60;93.40
13086;DHT22;6609;49.882;8.664;2022-10-17T03:04:05;13.60;93.40
13086;DHT22;6609;49.882;8.664;2022-10-17T03:08:59;13.60;93.40
13086;DHT22;6609;49.882;8.664;2022-10-17T03:11:26;13.50;93.40
13086;DHT22;6609;49.882;8.664;2022-10-17T03:13:52;13.50;93.40
13086;DHT22;6609;49.882;8.664;2022-10-17T03:16:19;13.50;93.50
13086;DHT22;6609;49.882;8.664;2022-10-17T03:18:46;13.50;93.40
13086;DHT22;6609;49.882;8.664;2022-10-17T03:23:41;13.50;93.30
13086;DHT22;6609;49.882;8.664;2022-10-17T03:36:04;13.40;93.20
13086;DHT22;6609;49.882;8.664;2022-10-17T03:38:33;13.40;93.20
13086;DHT22;6609;49.882;8.664;2022-10-17T03:41:00;13.40;93.20
13086;DHT22;6609;49.882;8.664;2022-10-17T03:48:21;13.40;93.30
13086;DHT22;6609;49.882;8.664;2022-10-17T03:50:48;13.40;93.30
13086;DHT22;6609;49.882;8.664;2022-10-17T03:53:15;13.30;93.30
13086;DHT22;6609;49.882;8.664;2022-10-17T03:55:43;13.30;93.20
13086;DHT22;6609;49.882;8.664;2022-10-17T04:00:37;13.30;93.30
13086;DHT22;6609;49.882;8.664;2022-10-17T04:05:31;13.30;93.30
13086;DHT22;6609;49.882;8.664;2022-10-17T04:12:53;13.30;93.40
13086;DHT22;6609;49.882;8.664;2022-10-17T04:15:19;13.30;93.40
13086;DHT22;6609;49.882;8.664;2022-10-17T04:25:08;13.30;93.50
13086;DHT22;6609;49.882;8.664;2022-10-17T04:30:03;13.30;93.40
13086;DHT22;6609;49.882;8.664;2022-10-17T04:37:24;13.20;93.40
13086;DHT22;6609;49.882;8.664;2022-10-17T04:42:18;13.30;93.50
13086;DHT22;6609;49.882;8.664;2022-10-17T04:44:45;13.20;93.50
13086;DHT22;6609;49.882;8.664;2022-10-17T04:47:13;13.20;93.40
13086;DHT22;6609;49.882;8.664;2022-10-17T04:52:06;13.20;93.50
13086;DHT22;6609;49.882;8.664;2022-10-17T04:57:01;13.20;93.50
13086;DHT22;6609;49.882;8.664;2022-10-17T04:59:27;13.20;93.50
13086;DHT22;6609;49.882;8.664;2022-10-17T05:04:24;13.20;93.40
13086;DHT22;6609;49.882;8.664;2022-10-17T05:11:45;13.20;93.50
13086;DHT22;6609;49.882;8.664;2022-10-17T05:14:12;13.20;93.40
13086;DHT22;6609;49.882;8.664;2022-10-17T05:16:39;13.20;93.50
13086;DHT22;6609;49.882;8.664;2022-10-17T05:21:34;13.60;93.60
13086;DHT22;6609;49.882;8.664;2022-10-17T05:24:04;13.10;93.30
13086;DHT22;6609;49.882;8.664;2022-10-17T05:28:59;13.10;93.30
13086;DHT22;6609;49.882;8.664;2022-10-17T05:31:27;13.10;93.30
13086;DHT22;6609;49.882;8.664;2022-10-17T05:33:54;13.10;93.30
13086;DHT22;6609;49.882;8.664;2022-10-17T05:38:50;13.00;93.30
13086;DHT22;6609;49.882;8.664;2022-10-17T05:41:17;13.00;93.30
13086;DHT22;6609;49.882;8.664;2022-10-17T05:43:47;13.00;93.30
13086;DHT22;6609;49.882;8.664;2022-10-17T05:46:15;13.00;93.40
13086;DHT22;6609;49.882;8.664;2022-10-17T05:51:08;13.00;93.30
13086;DHT22;6609;49.882;8.664;2022-10-17T05:53:37;13.00;93.30
13086;DHT22;6609;49.882;8.664;2022-10-17T05:56:07;13.00;93.40
13086;DHT22;6609;49.882;8.664;2022-10-17T06:01:04;13.00;93.40
13086;DHT22;6609;49.882;8.664;2022-10-17T06:03:31;12.90;93.40
13086;DHT22;6609;49.882;8.664;2022-10-17T06:06:02;12.90;93.40
13086;DHT22;6609;49.882;8.664;2022-10-17T06:08:29;12.90;93.40
13086;DHT22;6609;49.882;8.664;2022-10-17T06:13:25;12.90;93.40
13086;DHT22;6609;49.882;8.664;2022-10-17T06:15:51;12.90;93.40
13086;DHT22;6609;49.882;8.664;2022-10-17T06:25:39;13.00;93.40
13086;DHT22;6609;49.882;8.664;2022-10-17T06:30:36;13.00;93.40
13086;DHT22;6609;49.882;8.664;2022-10-17T06:33:03;13.10;93.50
13086;DHT22;6609;49.882;8.664;2022-10-17T06:40:24;13.10;93.40
13086;DHT22;6609;49.882;8.664;2022-10-17T06:47:46;13.10;93.50
13086;DHT22;6609;49.882;8.664;2022-10-17T06:50:14;13.20;93.60
13086;DHT22;6609;49.882;8.664;2022-10-17T06:57:35;13.20;93.80
13086;DHT22;6609;49.882;8.664;2022-10-17T07:00:03;13.30;93.80
13086;DHT22;6609;49.882;8.664;2022-10-17T07:04:58;13.60;94.10
13086;DHT22;6609;49.882;8.664;2022-10-17T07:07:25;13.70;94.30
13086;DHT22;6609;49.882;8.664;2022-10-17T07:12:19;14.10;95.00
13086;DHT22;6609;49.882;8.664;2022-10-17T07:14:45;14.20;94.50
13086;DHT22;6609;49.882;8.664;2022-10-17T07:19:41;14.30;93.80
13086;DHT22;6609;49.882;8.664;2022-10-17T07:22:11;14.40;93.60
13086;DHT22;6609;49.882;8.664;2022-10-17T07:24:37;14.40;93.50
13086;DHT22;6609;49.882;8.664;2022-10-17T07:27:04;14.50;93.30
13086;DHT22;6609;49.882;8.664;2022-10-17T07:31:58;14.60;93.20
13086;DHT22;6609;49.882;8.664;2022-10-17T07:39:23;15.00;93.30
13086;DHT22;6609;49.882;8.664;2022-10-17T07:41:50;15.20;93.20
13086;DHT22;6609;49.882;8.664;2022-10-17T07:44:17;15.40;93.00
13086;DHT22;6609;49.882;8.664;2022-10-17T07:51:38;16.50;91.40
13086;DHT22;6609;49.882;8.664;2022-10-17T07:54:04;16.90;90.80
13086;DHT22;6609;49.882;8.664;2022-10-17T07:56:33;17.30;90.10
13086;DHT22;6609;49.882;8.664;2022-10-17T07:58:59;17.70;88.50
13086;DHT22;6609;49.882;8.664;2022-10-17T08:03:53;18.70;85.40
13086;DHT22;6609;49.882;8.664;2022-10-17T08:11:14;20.00;82.50
13086;DHT22;6609;49.882;8.664;2022-10-17T08:13:42;20.50;80.10
13086;DHT22;6609;49.882;8.664;2022-10-17T08:16:11;21.00;77.40
13086;DHT22;6609;49.882;8.664;2022-10-17T08:18:39;21.60;75.50
13086;DHT22;6609;49.882;8.664;2022-10-17T08:21:07;22.10;72.30
13086;DHT22;6609;49.882;8.664;2022-10-17T08:23:34;22.50;70.00
13086;DHT22;6609;49.882;8.664;2022-10-17T08:26:03;22.90;67.90
13086;DHT22;6609;49.882;8.664;2022-10-17T08:28:32;22.80;66.20
13086;DHT22;6609;49.882;8.664;2022-10-17T08:31:06;22.80;65.60
13086;DHT22;6609;49.882;8.664;2022-10-17T08:33:33;22.80;65.20
13086;DHT22;6609;49.882;8.664;2022-10-17T08:36:00;22.80;64.40
13086;DHT22;6609;49.882;8.664;2022-10-17T08:40:58;22.50;64.40
13086;DHT22;6609;49.882;8.664;2022-10-17T08:43:39;22.40;63.90
13086;DHT22;6609;49.882;8.664;2022-10-17T08:46:09;22.30;64.00
13086;DHT22;6609;49.882;8.664;2022-10-17T08:48:38;22.20;63.80
13086;DHT22;6609;49.882;8.664;2022-10-17T08:51:11;22.00;64.10
13086;DHT22;6609;49.882;8.664;2022-10-17T08:53:44;21.80;64.70
13086;DHT22;6609;49.882;8.664;2022-10-17T08:56:17;21.60;65.20
13086;DHT22;6609;49.882;8.664;2022-10-17T09:01:26;21.40;65.50
13086;DHT22;6609;49.882;8.664;2022-10-17T09:04:05;21.40;66.00
13086;DHT22;6609;49.882;8.664;2022-10-17T09:06:39;21.30;66.00
13086;DHT22;6609;49.882;8.664;2022-10-17T09:09:17;21.20;66.70
13086;DHT22;6609;49.882;8.664;2022-10-17T09:11:55;21.20;66.90
13086;DHT22;6609;49.882;8.664;2022-10-17T09:17:29;21.00;67.80
13086;DHT22;6609;49.882;8.664;2022-10-17T09:20:03;21.00;67.80
13086;DHT22;6609;49.882;8.664;2022-10-17T09:22:36;21.00;67.50
13086;DHT22;6609;49.882;8.664;2022-10-17T09:25:09;21.00;67.90
13086;DHT22;6609;49.882;8.664;2022-10-17T09:27:40;20.90;68.00
13086;DHT22;6609;49.882;8.664;2022-10-17T09:30:27;21.00;67.70
13086;DHT22;6609;49.882;8.664;2022-10-17T09:32:57;21.10;67.60
13086;DHT22;6609;49.882;8.664;2022-10-17T09:35:26;21.20;67.50
13086;DHT22;6609;49.882;8.664;2022-10-17T09:40:24;21.60;66.70
13086;DHT22;6609;49.882;8.664;2022-10-17T09:42:52;22.10;65.70
13086;DHT22;6609;49.882;8.664;2022-10-17T09:45:21;22.70;64.30
13086;DHT22;6609;49.882;8.664;2022-10-17T09:47:58;23.20;62.60
13086;DHT22;6609;49.882;8.664;2022-10-17T09:50:29;23.80;61.10
13086;DHT22;6609;49.882;8.664;2022-10-17T09:53:00;24.50;59.50
13086;DHT22;6609;49.882;8.664;2022-10-17T09:55:36;25.10;57.10
13086;DHT22;6609;49.882;8.664;2022-10-17T09:58:05;26.00;55.00
13086;DHT22;6609;49.882;8.664;2022-10-17T10:00:34;26.40;51.50
13086;DHT22;6609;49.882;8.664;2022-10-17T10:03:15;26.80;50.20
13086;DHT22;6609;49.882;8.664;2022-10-17T10:06:00;26.80;50.40
13086;DHT22;6609;49.882;8.664;2022-10-17T10:08:28;26.90;50.60
13086;DHT22;6609;49.882;8.664;2022-10-17T10:11:00;27.10;47.20
13086;DHT22;6609;49.882;8.664;2022-10-17T10:16:17;26.90;45.70
13086;DHT22;6609;49.882;8.664;2022-10-17T10:18:47;26.50;46.80
13086;DHT22;6609;49.882;8.664;2022-10-17T10:21:16;26.10;47.20
13086;DHT22;6609;49.882;8.664;2022-10-17T10:23:45;25.90;47.70
13086;DHT22;6609;49.882;8.664;2022-10-17T10:26:31;25.40;48.80
13086;DHT22;6609;49.882;8.664;2022-10-17T10:29:00;25.10;48.80
13086;DHT22;6609;49.882;8.664;2022-10-17T10:34:11;24.80;49.40
13086;DHT22;6609;49.882;8.664;2022-10-17T10:39:33;24.70;50.20
13086;DHT22;6609;49.882;8.664;2022-10-17T10:42:03;24.60;50.00
13086;DHT22;6609;49.882;8.664;2022-10-17T10:44:32;24.50;50.00
13086;DHT22;6609;49.882;8.664;2022-10-17T10:47:16;24.30;50.60
13086;DHT22;6609;49.882;8.664;2022-10-17T10:49:45;24.30;51.50
13086;DHT22;6609;49.882;8.664;2022-10-17T10:52:19;24.30;51.80
13086;DHT22;6609;49.882;8.664;2022-10-17T10:54:54;24.30;51.60
13086;DHT22;6609;49.882;8.664;2022-10-17T10:57:25;24.40;50.60
13086;DHT22;6609;49.882;8.664;2022-10-17T10:59:59;24.50;50.00
13086;DHT22;6609;49.882;8.664;2022-10-17T11:02:31;24.50;50.40
13086;DHT22;6609;49.882;8.664;2022-10-17T11:05:05;24.60;51.10
13086;DHT22;6609;49.882;8.664;2022-10-17T11:07:40;24.60;50.60
13086;DHT22;6609;49.882;8.664;2022-10-17T11:10:13;24.70;51.60
13086;DHT22;6609;49.882;8.664;2022-10-17T11:12:43;24.80;51.70
13086;DHT22;6609;49.882;8.664;2022-10-17T11:15:18;24.90;51.70
13086;DHT22;6609;49.882;8.664;2022-10-17T11:17:54;24.90;50.80
13086;DHT22;6609;49.882;8.664;2022-10-17T11:20:29;25.00;50.50
13086;DHT22;6609;49.882;8.664;2022-10-17T11:23:07;25.10;49.70
13086;DHT22;6609;49.882;8.664;2022-10-17T11:25:37;25.10;49.90
13086;DHT22;6609;49.882;8.664;2022-10-17T11:28:11;25.50;50.30
13086;DHT22;6609;49.882;8.664;2022-10-17T11:30:45;25.20;49.90
13086;DHT22;6609;49.882;8.664;2022-10-17T11:33:16;25.20;50.00
13086;DHT22;6609;49.882;8.664;2022-10-17T11:35:47;25.20;49.90
13086;DHT22;6609;49.882;8.664;2022-10-17T11:38:17;25.10;49.70
13086;DHT22;6609;49.882;8.664;2022-10-17T11:43:19;25.10;50.10
13086;DHT22;6609;49.882;8.664;2022-10-17T11:45:52;25.10;50.40
13086;DHT22;6609;49.882;8.664;2022-10-17T11:48:25;25.10;50.50
13086;DHT22;6609;49.882;8.664;2022-10-17T11:50:58;25.00;50.70
13086;DHT22;6609;49.882;8.664;2022-10-17T11:53:30;25.00;50.60
13086;DHT22;6609;49.882;8.664;2022-10-17T11:58:36;25.00;50.50
13086;DHT22;6609;49.882;8.664;2022-10-17T12:01:13;25.00;50.40
13086;DHT22;6609;49.882;8.664;2022-10-17T12:03:49;25.00;50.90
13086;DHT22;6609;49.882;8.664;2022-10-17T12:06:44;25.00;50.90
13086;DHT22;6609;49.882;8.664;2022-10-17T12:09:19;25.00;50.80
13086;DHT22;6609;49.882;8.664;2022-10-17T12:11:51;25.10;50.50
13086;DHT22;6609;49.882;8.664;2022-10-17T12:14:35;25.30;50.50
13086;DHT22;6609;49.882;8.664;2022-10-17T12:17:03;25.40;50.30
13086;DHT22;6609;49.882;8.664;2022-10-17T12:19:34;25.40;50.00
13086;DHT22;6609;49.882;8.664;2022-10-17T12:22:18;25.60;49.70
13086;DHT22;6609;49.882;8.664;2022-10-17T12:24:53;25.60;49.20
13086;DHT22;6609;49.882;8.664;2022-10-17T12:27:37;25.60;49.20
13086;DHT22;6609;49.882;8.664;2022-10-17T12:30:14;25.20;49.10
13086;DHT22;6609;49.882;8.664;2022-10-17T12:32:53;25.40;49.20
13086;DHT22;6609;49.882;8.664;2022-10-17T12:35:23;25.30;49.50
13086;DHT22;6609;49.882;8.664;2022-10-17T12:41:05;25.20;50.20
13086;DHT22;6609;49.882;8.664;2022-10-17T12:43:47;25.20;49.90
13086;DHT22;6609;49.882;8.664;2022-10-17T12:46:48;25.10;49.90
13086;DHT22;6609;49.882;8.664;2022-10-17T12:52:16;25.00;50.60
13086;DHT22;6609;49.882;8.664;2022-10-17T12:54:47;24.90;50.70
13086;DHT22;6609;49.882;8.664;2022-10-17T12:57:20;24.80;50.70
13086;DHT22;6609;49.882;8.664;2022-10-17T13:02:18;24.70;51.00
13086;DHT22;6609;49.882;8.664;2022-10-17T13:07:17;24.60;51.50
13086;DHT22;6609;49.882;8.664;2022-10-17T13:12:18;24.50;52.30
13086;DHT22;6609;49.882;8.664;2022-10-17T13:14:46;24.40;52.50
13086;DHT22;6609;49.882;8.664;2022-10-17T13:17:22;24.30;52.30
13086;DHT22;6609;49.882;8.664;2022-10-17T13:22:19;24.30;52.40
13086;DHT22;6609;49.882;8.664;2022-10-17T13:27:25;24.20;53.40
13086;DHT22;6609;49.882;8.664;2022-10-17T13:29:53;24.10;53.70
13086;DHT22;6609;49.882;8.664;2022-10-17T13:32:22;24.00;54.80
13086;DHT22;6609;49.882;8.664;2022-10-17T13:35:08;23.90;54.70
13086;DHT22;6609;49.882;8.664;2022-10-17T13:40:04;23.80;55.50
13086;DHT22;6609;49.882;8.664;2022-10-17T13:42:37;23.70;55.60
13086;DHT22;6609;49.882;8.664;2022-10-17T13:45:12;23.60;55.60
13086;DHT22;6609;49.882;8.664;2022-10-17T13:50:19;23.50;56.00
13086;DHT22;6609;49.882;8.664;2022-10-17T13:52:46;23.40;56.40
13086;DHT22;6609;49.882;8.664;2022-10-17T14:00:17;23.40;57.30
13086;DHT22;6609;49.882;8.664;2022-10-17T14:02:44;23.40;57.30
13086;DHT22;6609;49.882;8.664;2022-10-17T14:05:13;23.30;57.50
13086;DHT22;6609;49.882;8.664;2022-10-17T14:07:42;23.30;58.00
13086;DHT22;6609;49.882;8.664;2022-10-17T14:10:19;23.30;58.30
13086;DHT22;6609;49.882;8.664;2022-10-17T14:12:46;23.20;58.90
13086;DHT22;6609;49.882;8.664;2022-10-17T14:15:14;23.20;59.30
13086;DHT22;6609;49.882;8.664;2022-10-17T14:17:42;23.10;59.60
13086;DHT22;6609;49.882;8.664;2022-10-17T14:20:17;23.10;59.60
13086;DHT22;6609;49.882;8.664;2022-10-17T14:22:44;23.10;59.70
13086;DHT22;6609;49.882;8.664;2022-10-17T14:28:12;23.10;60.30
13086;DHT22;6609;49.882;8.664;2022-10-17T14:30:42;23.00;60.30
13086;DHT22;6609;49.882;8.664;2022-10-17T14:33:14;23.00;60.60
13086;DHT22;6609;49.882;8.664;2022-10-17T14:35:48;22.90;60.90
13086;DHT22;6609;49.882;8.664;2022-10-17T14:38:16;22.90;61.10
13086;DHT22;6609;49.882;8.664;2022-10-17T14:40:49;22.90;61.10
13086;DHT22;6609;49.882;8.664;2022-10-17T14:43:20;22.90;61.10
13086;DHT22;6609;49.882;8.664;2022-10-17T14:45:47;22.90;61.40
13086;DHT22;6609;49.882;8.664;2022-10-17T14:48:16;22.90;61.70
13086;DHT22;6609;49.882;8.664;2022-10-17T14:51:06;22.80;62.20
13086;DHT22;6609;49.882;8.664;2022-10-17T14:58:30;22.60;63.40
13086;DHT22;6609;49.882;8.664;2022-10-17T15:00:59;22.60;63.50
13086;DHT22;6609;49.882;8.664;2022-10-17T15:03:26;22.50;63.80
13086;DHT22;6609;49.882;8.664;2022-10-17T15:08:21;22.40;64.40
13086;DHT22;6609;49.882;8.664;2022-10-17T15:10:49;22.40;64.50
13086;DHT22;6609;49.882;8.664;2022-10-17T15:15:45;22.40;65.00
13086;DHT22;6609;49.882;8.664;2022-10-17T15:18:15;22.30;65.30
13086;DHT22;6609;49.882;8.664;2022-10-17T15:25:36;22.20;65.70
13086;DHT22;6609;49.882;8.664;2022-10-17T15:30:35;22.30;66.00
13086;DHT22;6609;49.882;8.664;2022-10-17T15:37:57;22.30;67.40
13086;DHT22;6609;49.882;8.664;2022-10-17T15:40:26;22.20;68.20
13086;DHT22;6609;49.882;8.664;2022-10-17T15:42:54;22.20;68.80
13086;DHT22;6609;49.882;8.664;2022-10-17T15:45:22;22.20;69.50
13086;DHT22;6609;49.882;8.664;2022-10-17T15:47:50;22.20;69.70
13086;DHT22;6609;49.882;8.664;2022-10-17T15:50:19;22.20;70.20
13086;DHT22;6609;49.882;8.664;2022-10-17T15:52:47;22.10;70.80
13086;DHT22;6609;49.882;8.664;2022-10-17T15:55:16;22.10;71.40
13086;DHT22;6609;49.882;8.664;2022-10-17T15:57:44;22.10;71.70
13086;DHT22;6609;49.882;8.664;2022-10-17T16:00:14;22.00;72.00
13086;DHT22;6609;49.882;8.664;2022-10-17T16:05:13;21.80;72.10
13086;DHT22;6609;49.882;8.664;2022-10-17T16:07:41;21.70;72.10
13086;DHT22;6609;49.882;8.664;2022-10-17T16:10:10;21.70;72.70
13086;DHT22;6609;49.882;8.664;2022-10-17T16:20:00;21.30;75.10
13086;DHT22;6609;49.882;8.664;2022-10-17T16:22:30;21.20;75.60
13086;DHT22;6609;49.882;8.664;2022-10-17T16:24:58;21.10;76.20
13086;DHT22;6609;49.882;8.664;2022-10-17T16:29:59;20.80;77.30
13086;DHT22;6609;49.882;8.664;2022-10-17T16:34:53;20.70;78.60
13086;DHT22;6609;49.882;8.664;2022-10-17T16:39:47;20.50;79.80
13086;DHT22;6609;49.882;8.664;2022-10-17T16:42:18;20.40;80.30
13086;DHT22;6609;49.882;8.664;2022-10-17T16:44:45;20.30;81.00
13086;DHT22;6609;49.882;8.664;2022-10-17T16:49:39;20.20;82.10
13086;DHT22;6609;49.882;8.664;2022-10-17T16:54:33;20.10;83.10
13086;DHT22;6609;49.882;8.664;2022-10-17T16:57:00;20.00;83.50
13086;DHT22;6609;49.882;8.664;2022-10-17T17:01:55;20.00;84.30
13086;DHT22;6609;49.882;8.664;2022-10-17T17:09:16;19.80;85.10
13086;DHT22;6609;49.882;8.664;2022-10-17T17:11:43;19.70;85.60
13086;DHT22;6609;49.882;8.664;2022-10-17T17:14:10;19.70;85.80
13086;DHT22;6609;49.882;8.664;2022-10-17T17:16:38;19.70;86.10
13086;DHT22;6609;49.882;8.664;2022-10-17T17:19:07;19.70;86.60
13086;DHT22;6609;49.882;8.664;2022-10-17T17:24:03;19.60;87.20
13086;DHT22;6609;49.882;8.664;2022-10-17T17:26:33;19.60;87.30
13086;DHT22;6609;49.882;8.664;2022-10-17T17:29:01;19.60;87.70
13086;DHT22;6609;49.882;8.664;2022-10-17T17:33:59;19.60;88.00
13086;DHT22;6609;49.882;8.664;2022-10-17T17:36:27;19.50;87.90
13086;DHT22;6609;49.882;8.664;2022-10-17T17:38:56;19.60;88.00
13086;DHT22;6609;49.882;8.664;2022-10-17T17:41:23;19.60;88.00
13086;DHT22;6609;49.882;8.664;2022-10-17T17:48:47;19.50;87.90
13086;DHT22;6609;49.882;8.664;2022-10-17T17:51:16;19.50;87.90
13086;DHT22;6609;49.882;8.664;2022-10-17T17:53:44;19.50;87.90
13086;DHT22;6609;49.882;8.664;2022-10-17T18:03:39;19.70;86.90
13086;DHT22;6609;49.882;8.664;2022-10-17T18:08:35;19.70;85.60
13086;DHT22;6609;49.882;8.664;2022-10-17T18:13:29;19.80;85.40
13086;DHT22;6609;49.882;8.664;2022-10-17T18:15:57;19.70;85.40
13086;DHT22;6609;49.882;8.664;2022-10-17T18:18:24;19.70;85.50
13086;DHT22;6609;49.882;8.664;2022-10-17T18:20:51;19.70;85.60
13086;DHT22;6609;49.882;8.664;2022-10-17T18:23:19;19.70;85.90
13086;DHT22;6609;49.882;8.664;2022-10-17T18:25:53;19.70;86.00
13086;DHT22;6609;49.882;8.664;2022-10-17T18:28:20;19.60;86.40
13086;DHT22;6609;49.882;8.664;2022-10-17T18:33:14;19.50;86.90
13086;DHT22;6609;49.882;8.664;2022-10-17T18:35:41;19.50;87.30
13086;DHT22;6609;49.882;8.664;2022-10-17T18:40:35;19.30;87.70
13086;DHT22;6609;49.882;8.664;2022-10-17T18:43:03;19.30;88.30
13086;DHT22;6609;49.882;8.664;2022-10-17T18:47:57;19.20;88.50
13086;DHT22;6609;49.882;8.664;2022-10-17T18:52:51;19.20;88.90
13086;DHT22;6609;49.882;8.664;2022-10-17T18:55:18;19.20;89.00
13086;DHT22;6609;49.882;8.664;2022-10-17T19:00:15;19.20;89.30
13086;DHT22;6609;49.882;8.664;2022-10-17T19:02:42;19.10;89.50
13086;DHT22;6609;49.882;8.664;2022-10-17T19:07:36;19.00;90.00
13086;DHT22;6609;49.882;8.664;2022-10-17T19:14:57;19.00;90.10
13086;DHT22;6609;49.882;8.664;2022-10-17T19:17:25;19.00;90.10
13086;DHT22;6609;49.882;8.664;2022-10-17T19:19:52;19.00;90.10
13086;DHT22;6609;49.882;8.664;2022-10-17T19:24:46;19.00;90.30
13086;DHT22;6609;49.882;8.664;2022-10-17T19:27:13;18.90;90.30
13086;DHT22;6609;49.882;8.664;2022-10-17T19:34:37;18.90;90.40
13086;DHT22;6609;49.882;8.664;2022-10-17T19:37:03;18.80;90.40
13086;DHT22;6609;49.882;8.664;2022-10-17T19:41:57;18.70;90.50
13086;DHT22;6609;49.882;8.664;2022-10-17T19:46:53;18.70;90.70
13086;DHT22;6609;49.882;8.664;2022-10-17T19:49:19;18.70;90.80
13086;DHT22;6609;49.882;8.664;2022-10-17T19:51:47;18.70;90.80
13086;DHT22;6609;49.882;8.664;2022-10-17T19:54:14;18.70;90.90
13086;DHT22;6609;49.882;8.664;2022-10-17T19:59:11;18.70;90.90
13086;DHT22;6609;49.882;8.664;2022-10-17T20:01:38;18.60;90.90
13086;DHT22;6609;49.882;8.664;2022-10-17T20:04:05;18.60;90.90
13086;DHT22;6609;49.882;8.664;2022-10-17T20:09:02;18.60;90.90
13086;DHT22;6609;49.882;8.664;2022-10-17T20:13:57;18.50;91.10
13086;DHT22;6609;49.882;8.664;2022-10-17T20:16:25;18.50;91.20
13086;DHT22;6609;49.882;8.664;2022-10-17T20:21:23;18.50;91.20
13086;DHT22;6609;49.882;8.664;2022-10-17T20:26:22;18.50;91.20
13086;DHT22;6609;49.882;8.664;2022-10-17T20:28:49;18.40;91.20
13086;DHT22;6609;49.882;8.664;2022-10-17T20:33:43;18.40;91.30
13086;DHT22;6609;49.882;8.664;2022-10-17T20:36:11;18.40;91.30
13086;DHT22;6609;49.882;8.664;2022-10-17T20:38:38;18.40;91.30
13086;DHT22;6609;49.882;8.664;2022-10-17T20:41:06;18.40;91.30
13086;DHT22;6609;49.882;8.664;2022-10-17T20:43:36;18.40;91.20
13086;DHT22;6609;49.882;8.664;2022-10-17T20:50:57;18.30;91.30
13086;DHT22;6609;49.882;8.664;2022-10-17T20:56:00;18.30;91.40
13086;DHT22;6609;49.882;8.664;2022-10-17T21:00:55;18.30;91.40
13086;DHT22;6609;49.882;8.664;2022-10-17T21:05:49;18.30;91.50
13086;DHT22;6609;49.882;8.664;2022-10-17T21:18:06;18.10;91.80
13086;DHT22;6609;49.882;8.664;2022-10-17T21:32:52;18.00;91.90
13086;DHT22;6609;49.882;8.664;2022-10-17T21:35:20;18.00;91.90
13086;DHT22;6609;49.882;8.664;2022-10-17T21:37:46;18.00;92.00
13086;DHT22;6609;49.882;8.664;2022-10-17T21:40:14;18.00;92.10
13086;DHT22;6609;49.882;8.664;2022-10-17T21:42:40;17.90;92.10
13086;DHT22;6609;49.882;8.664;2022-10-17T21:45:08;17.90;92.30
13086;DHT22;6609;49.882;8.664;2022-10-17T21:50:02;17.90;92.30
13086;DHT22;6609;49.882;8.664;2022-10-17T21:52:30;17.90;92.30
13086;DHT22;6609;49.882;8.664;2022-10-17T21:57:24;17.80;92.30
13086;DHT22;6609;49.882;8.664;2022-10-17T21:59:50;17.80;92.30
13086;DHT22;6609;49.882;8.664;2022-10-17T22:02:17;17.80;92.20
13086;DHT22;6609;49.882;8.664;2022-10-17T22:04:44;17.80;92.30
13086;DHT22;6609;49.882;8.664;2022-10-17T22:07:10;17.70;92.40
13086;DHT22;6609;49.882;8.664;2022-10-17T22:09:38;17.70;92.40
13086;DHT22;6609;49.882;8.664;2022-10-17T22:14:32;17.70;92.50